createdAt,value
2022-08-14T00:00:21.259Z,21.12
2022-08-14T00:00:54.424Z,21.12
2022-08-14T00:01:26.068Z,21.10
2022-08-14T00:02:03.133Z,21.09
2022-08-14T00:02:35.136Z,21.10
2022-08-14T00:03:08.097Z,21.08
2022-08-14T00:03:40.680Z,21.05
2022-08-14T00:04:34.877Z,21.00
2022-08-14T00:05:04.677Z,20.92
2022-08-14T00:05:36.138Z,20.88
2022-08-14T00:06:14.038Z,20.86
2022-08-14T00:06:57.429Z,20.84
2022-08-14T00:07:28.927Z,20.91
2022-08-14T00:08:01.319Z,20.92
2022-08-14T00:08:43.596Z,20.89
2022-08-14T00:09:16.955Z,20.87
2022-08-14T00:09:56.206Z,20.90
2022-08-14T00:10:50.032Z,20.92
2022-08-14T00:11:24.535Z,20.86
2022-08-14T00:11:56.685Z,20.86
2022-08-14T00:12:33.828Z,20.86
2022-08-14T00:13:09.395Z,20.83
2022-08-14T00:13:51.780Z,20.89
2022-08-14T00:14:25.524Z,20.81
2022-08-14T00:14:58.447Z,20.80
2022-08-14T00:15:37.672Z,20.82
2022-08-14T00:16:44.204Z,20.75
2022-08-14T00:17:07.387Z,20.53
2022-08-14T00:17:48.417Z,20.53
2022-08-14T00:18:30.639Z,20.70
2022-08-14T00:19:19.617Z,20.63
2022-08-14T00:19:52.994Z,20.72
2022-08-14T00:20:30.834Z,20.70
2022-08-14T00:21:10.904Z,20.75
2022-08-14T00:21:42.863Z,20.72
2022-08-14T00:22:44.318Z,20.65
2022-08-14T00:23:16.346Z,20.62
2022-08-14T00:23:53.934Z,20.63
2022-08-14T00:24:28.893Z,20.60
2022-08-14T00:25:02.572Z,20.61
2022-08-14T00:25:41.679Z,20.61
2022-08-14T00:26:21.989Z,20.64
2022-08-14T00:26:54.925Z,20.63
2022-08-14T00:27:26.376Z,20.63
2022-08-14T00:28:04.081Z,20.67
2022-08-14T00:28:37.062Z,20.64
2022-08-14T00:29:08.663Z,20.64
2022-08-14T00:29:42.950Z,20.72
2022-08-14T00:30:17.312Z,20.66
2022-08-14T00:30:49.012Z,20.62
2022-08-14T00:31:32.966Z,20.55
2022-08-14T00:32:52.038Z,20.59
2022-08-14T00:33:15.080Z,20.51
2022-08-14T00:33:52.067Z,20.49
2022-08-14T00:34:37.664Z,20.50
2022-08-14T00:35:15.967Z,20.57
2022-08-14T00:36:37.054Z,20.55
2022-08-14T00:36:48.718Z,20.58
2022-08-14T00:37:21.322Z,20.58
2022-08-14T00:37:52.754Z,20.56
2022-08-14T00:38:24.292Z,20.51
2022-08-14T00:38:58.901Z,20.44
2022-08-14T00:39:31.916Z,20.51
2022-08-14T00:40:18.793Z,20.52
2022-08-14T00:40:55.562Z,20.48
2022-08-14T00:41:33.338Z,20.44
2022-08-14T00:42:05.238Z,20.41
2022-08-14T00:42:54.839Z,20.33
2022-08-14T00:43:32.208Z,20.35
2022-08-14T00:44:04.084Z,20.33
2022-08-14T00:44:37.176Z,20.36
2022-08-14T00:45:14.876Z,20.34
2022-08-14T00:45:52.637Z,20.31
2022-08-14T00:46:33.052Z,20.30
2022-08-14T00:47:10.767Z,20.28
2022-08-14T00:47:44.917Z,20.28
2022-08-14T00:48:34.274Z,20.30
2022-08-14T00:49:11.484Z,20.23
2022-08-14T00:49:46.036Z,20.22
2022-08-14T00:50:20.602Z,20.21
2022-08-14T00:50:55.076Z,20.09
2022-08-14T00:51:34.807Z,20.17
2022-08-14T00:52:10.780Z,20.21
2022-08-14T00:52:47.391Z,20.19
2022-08-14T00:53:23.452Z,20.21
2022-08-14T00:53:55.950Z,20.19
2022-08-14T00:54:27.759Z,20.17
2022-08-14T00:54:59.458Z,20.21
2022-08-14T00:55:35.940Z,20.17
2022-08-14T00:56:10.468Z,20.20
2022-08-14T00:56:47.022Z,20.18
2022-08-14T00:57:19.556Z,20.15
2022-08-14T00:58:12.165Z,20.11
2022-08-14T00:58:45.174Z,20.09
2022-08-14T00:59:17.145Z,20.05
2022-08-14T00:59:48.885Z,19.99
2022-08-14T01:00:37.015Z,19.95
2022-08-14T01:01:16.699Z,19.92
2022-08-14T01:01:49.287Z,19.92
2022-08-14T01:02:24.834Z,19.90
2022-08-14T01:02:59.856Z,19.88
2022-08-14T01:03:31.988Z,19.87
2022-08-14T01:04:05.513Z,19.87
2022-08-14T01:04:54.338Z,19.78
2022-08-14T01:05:26.515Z,19.73
2022-08-14T01:06:15.062Z,19.74
2022-08-14T01:06:46.808Z,19.68
2022-08-14T01:07:21.467Z,19.77
2022-08-14T01:07:56.965Z,19.83
2022-08-14T01:08:51.382Z,19.80
2022-08-14T01:09:24.124Z,19.81
2022-08-14T01:09:56.697Z,19.83
2022-08-14T01:10:49.165Z,19.78
2022-08-14T01:11:20.596Z,19.77
2022-08-14T01:11:57.221Z,19.74
2022-08-14T01:12:40.731Z,19.69
2022-08-14T01:13:14.234Z,19.68
2022-08-14T01:13:45.742Z,19.61
2022-08-14T01:14:28.626Z,19.63
2022-08-14T01:15:02.075Z,19.61
2022-08-14T01:15:55.156Z,19.54
2022-08-14T01:16:28.050Z,19.53
2022-08-14T01:17:02.111Z,19.53
2022-08-14T01:17:52.544Z,19.56
2022-08-14T01:18:43.358Z,19.50
2022-08-14T01:19:46.665Z,19.33
2022-08-14T01:20:39.751Z,19.30
2022-08-14T01:21:15.902Z,19.29
2022-08-14T01:21:53.399Z,19.26
2022-08-14T01:22:26.963Z,19.27
2022-08-14T01:23:01.029Z,19.27
2022-08-14T01:23:46.683Z,19.25
2022-08-14T01:24:24.601Z,19.15
2022-08-14T01:25:02.598Z,19.18
2022-08-14T01:25:38.177Z,19.19
2022-08-14T01:26:12.127Z,19.23
2022-08-14T01:26:55.087Z,19.25
2022-08-14T01:27:28.660Z,19.21
2022-08-14T01:28:01.564Z,19.12
2022-08-14T01:28:56.239Z,19.14
2022-08-14T01:29:32.743Z,19.23
2022-08-14T01:30:21.028Z,19.27
2022-08-14T01:30:57.652Z,19.24
2022-08-14T01:31:37.014Z,19.20
2022-08-14T01:32:10.586Z,19.17
2022-08-14T01:32:45.106Z,19.01
2022-08-14T01:33:26.280Z,19.02
2022-08-14T01:35:17.635Z,18.94
2022-08-14T01:35:19.271Z,18.98
2022-08-14T01:36:04.730Z,18.71
2022-08-14T01:36:39.253Z,18.83
2022-08-14T01:37:11.206Z,18.82
2022-08-14T01:37:54.819Z,18.90
2022-08-14T01:38:37.195Z,18.94
2022-08-14T01:39:13.189Z,18.89
2022-08-14T01:39:45.440Z,18.91
2022-08-14T01:40:19.871Z,18.90
2022-08-14T01:40:52.083Z,18.96
2022-08-14T01:41:30.094Z,18.94
2022-08-14T01:42:03.269Z,18.98
2022-08-14T01:42:36.269Z,19.01
2022-08-14T01:43:15.819Z,18.97
2022-08-14T01:43:56.595Z,18.97
2022-08-14T01:44:33.418Z,19.03
2022-08-14T01:45:12.703Z,18.98
2022-08-14T01:45:57.910Z,18.96
2022-08-14T01:46:40.201Z,19.00
2022-08-14T01:47:22.109Z,18.97
2022-08-14T01:48:03.259Z,18.92
2022-08-14T01:48:37.139Z,18.93
2022-08-14T01:49:10.164Z,18.98
2022-08-14T01:49:45.988Z,19.00
2022-08-14T01:50:18.421Z,18.74
2022-08-14T01:51:01.351Z,18.87
2022-08-14T01:51:33.532Z,18.89
2022-08-14T01:52:08.946Z,18.91
2022-08-14T01:52:59.783Z,18.93
2022-08-14T01:53:32.759Z,18.91
2022-08-14T01:54:14.446Z,18.95
2022-08-14T01:54:45.960Z,18.96
2022-08-14T01:55:31.751Z,18.97
2022-08-14T01:56:04.885Z,18.98
2022-08-14T01:56:44.728Z,18.97
2022-08-14T01:57:16.374Z,19.00
2022-08-14T01:58:00.524Z,18.94
2022-08-14T01:58:46.604Z,18.82
2022-08-14T01:59:37.586Z,18.73
2022-08-14T02:00:15.326Z,18.80
2022-08-14T02:00:54.428Z,18.84
2022-08-14T02:01:27.211Z,18.87
2022-08-14T02:02:01.547Z,18.94
2022-08-14T02:02:36.888Z,18.96
2022-08-14T02:03:08.766Z,18.97
2022-08-14T02:03:40.908Z,18.98
2022-08-14T02:04:20.729Z,18.95
2022-08-14T02:05:07.459Z,18.98
2022-08-14T02:05:39.157Z,19.03
2022-08-14T02:06:32.275Z,19.06
2022-08-14T02:07:03.209Z,19.05
2022-08-14T02:07:53.541Z,19.05
2022-08-14T02:08:34.556Z,19.03
2022-08-14T02:09:09.163Z,19.00
2022-08-14T02:09:55.785Z,18.92
2022-08-14T02:10:30.831Z,19.03
2022-08-14T02:11:18.587Z,18.97
2022-08-14T02:11:54.534Z,18.95
2022-08-14T02:12:30.836Z,18.78
2022-08-14T02:13:08.057Z,18.87
2022-08-14T02:13:40.018Z,18.94
2022-08-14T02:14:14.778Z,18.97
2022-08-14T02:15:04.136Z,18.97
2022-08-14T02:15:35.593Z,18.92
2022-08-14T02:16:13.371Z,18.68
2022-08-14T02:16:54.267Z,18.81
2022-08-14T02:17:26.856Z,18.87
2022-08-14T02:18:01.510Z,18.83
2022-08-14T02:18:34.063Z,18.89
2022-08-14T02:19:07.410Z,18.67
2022-08-14T02:19:38.880Z,18.89
2022-08-14T02:20:10.673Z,18.91
2022-08-14T02:20:42.551Z,18.91
2022-08-14T02:21:19.271Z,18.79
2022-08-14T02:21:52.223Z,18.71
2022-08-14T02:22:32.434Z,18.75
2022-08-14T02:23:05.282Z,18.74
2022-08-14T02:23:39.879Z,18.80
2022-08-14T02:24:39.427Z,18.74
2022-08-14T02:25:03.355Z,18.86
2022-08-14T02:25:34.879Z,18.78
2022-08-14T02:26:58.624Z,18.59
2022-08-14T02:28:23.651Z,18.83
2022-08-14T02:28:57.410Z,18.84
2022-08-14T02:29:17.901Z,18.84
2022-08-14T02:29:59.176Z,18.84
2022-08-14T02:30:33.867Z,18.78
2022-08-14T02:31:09.069Z,18.79
2022-08-14T02:31:45.444Z,18.80
2022-08-14T02:32:19.964Z,18.54
2022-08-14T02:33:02.173Z,18.70
2022-08-14T02:33:39.336Z,18.66
2022-08-14T02:34:19.918Z,18.50
2022-08-14T02:34:53.513Z,18.63
2022-08-14T02:35:33.015Z,18.69
2022-08-14T02:36:58.798Z,18.74
2022-08-14T02:37:06.683Z,18.69
2022-08-14T02:37:48.182Z,18.76
2022-08-14T02:38:29.607Z,18.77
2022-08-14T02:39:02.407Z,18.78
2022-08-14T02:39:36.022Z,18.54
2022-08-14T02:40:09.297Z,18.65
2022-08-14T02:40:40.792Z,18.72
2022-08-14T02:41:14.192Z,18.74
2022-08-14T02:41:52.608Z,18.83
2022-08-14T02:42:37.518Z,18.84
2022-08-14T02:43:22.749Z,18.85
2022-08-14T02:43:54.398Z,18.77
2022-08-14T02:44:39.796Z,18.78
2022-08-14T02:45:11.619Z,18.80
2022-08-14T02:45:44.507Z,18.75
2022-08-14T02:46:20.608Z,18.57
2022-08-14T02:47:01.394Z,18.57
2022-08-14T02:47:34.193Z,18.61
2022-08-14T02:49:01.775Z,18.58
2022-08-14T02:49:06.230Z,18.54
2022-08-14T02:49:38.179Z,18.54
2022-08-14T02:50:17.592Z,18.59
2022-08-14T02:50:51.497Z,18.63
2022-08-14T02:51:23.467Z,18.62
2022-08-14T02:51:55.632Z,18.68
2022-08-14T02:52:57.057Z,18.66
2022-08-14T02:53:19.740Z,18.49
2022-08-14T02:53:52.644Z,18.43
2022-08-14T02:54:24.521Z,18.48
2022-08-14T02:54:57.213Z,18.49
2022-08-14T02:55:30.911Z,18.49
2022-08-14T02:56:29.691Z,18.46
2022-08-14T02:57:15.477Z,18.48
2022-08-14T02:57:46.562Z,18.51
2022-08-14T02:58:30.870Z,18.31
2022-08-14T02:59:05.700Z,18.32
2022-08-14T02:59:43.178Z,18.33
2022-08-14T03:00:18.636Z,18.38
2022-08-14T03:00:51.501Z,18.42
2022-08-14T03:01:31.429Z,18.41
2022-08-14T03:02:48.666Z,18.39
2022-08-14T03:03:08.282Z,18.32
2022-08-14T03:03:40.039Z,18.26
2022-08-14T03:04:12.563Z,18.34
2022-08-14T03:04:44.303Z,18.29
2022-08-14T03:05:15.929Z,18.29
2022-08-14T03:05:47.543Z,18.30
2022-08-14T03:06:34.723Z,18.31
2022-08-14T03:07:17.154Z,18.27
2022-08-14T03:07:48.607Z,18.34
2022-08-14T03:08:31.798Z,18.39
2022-08-14T03:09:03.896Z,18.39
2022-08-14T03:10:24.615Z,18.38
2022-08-14T03:10:33.221Z,18.33
2022-08-14T03:11:07.723Z,18.39
2022-08-14T03:11:44.753Z,18.39
2022-08-14T03:12:17.932Z,18.42
2022-08-14T03:12:59.075Z,18.34
2022-08-14T03:13:36.334Z,18.38
2022-08-14T03:14:09.920Z,18.41
2022-08-14T03:14:47.824Z,18.36
2022-08-14T03:15:21.000Z,18.27
2022-08-14T03:15:55.292Z,18.32
2022-08-14T03:16:28.445Z,18.26
2022-08-14T03:17:09.480Z,18.28
2022-08-14T03:17:56.489Z,18.32
2022-08-14T03:18:30.689Z,18.17
2022-08-14T03:19:04.011Z,18.16
2022-08-14T03:19:35.757Z,18.17
2022-08-14T03:20:11.383Z,18.27
2022-08-14T03:20:43.599Z,18.20
2022-08-14T03:21:18.173Z,18.19
2022-08-14T03:21:52.915Z,18.23
2022-08-14T03:22:24.646Z,18.23
2022-08-14T03:23:03.171Z,18.22
2022-08-14T03:23:38.019Z,18.23
2022-08-14T03:24:21.481Z,18.26
2022-08-14T03:24:54.920Z,18.13
2022-08-14T03:25:26.382Z,18.02
2022-08-14T03:25:58.627Z,18.04
2022-08-14T03:26:31.860Z,18.01
2022-08-14T03:27:03.465Z,18.04
2022-08-14T03:27:48.562Z,18.10
2022-08-14T03:28:33.614Z,18.12
2022-08-14T03:29:05.220Z,18.10
2022-08-14T03:29:41.661Z,17.93
2022-08-14T03:30:14.529Z,17.99
2022-08-14T03:30:46.301Z,17.97
2022-08-14T03:31:22.078Z,18.01
2022-08-14T03:31:58.956Z,18.06
2022-08-14T03:32:33.430Z,18.04
2022-08-14T03:33:05.670Z,18.04
2022-08-14T03:33:40.300Z,18.04
2022-08-14T03:34:24.274Z,18.01
2022-08-14T03:35:08.805Z,17.74
2022-08-14T03:36:05.645Z,17.78
2022-08-14T03:37:51.008Z,17.66
2022-08-14T03:37:51.075Z,17.70
2022-08-14T03:39:12.192Z,17.61
2022-08-14T03:39:21.214Z,17.72
2022-08-14T03:39:53.913Z,17.73
2022-08-14T03:40:25.622Z,17.74
2022-08-14T03:40:57.183Z,17.64
2022-08-14T03:41:33.109Z,17.73
2022-08-14T03:42:05.748Z,17.82
2022-08-14T03:42:51.038Z,17.90
2022-08-14T03:43:22.956Z,17.91
2022-08-14T03:44:00.840Z,17.87
2022-08-14T03:45:19.483Z,17.71
2022-08-14T03:45:34.883Z,17.67
2022-08-14T03:46:38.550Z,17.56
2022-08-14T03:46:58.215Z,17.69
2022-08-14T03:47:46.462Z,17.79
2022-08-14T03:48:30.156Z,17.87
2022-08-14T03:49:05.418Z,17.78
2022-08-14T03:49:41.982Z,17.83
2022-08-14T03:50:14.193Z,17.84
2022-08-14T03:50:56.218Z,17.71
2022-08-14T03:51:31.204Z,17.77
2022-08-14T03:52:07.858Z,17.81
2022-08-14T03:52:57.499Z,17.82
2022-08-14T03:53:34.214Z,17.55
2022-08-14T03:54:10.955Z,17.53
2022-08-14T03:54:52.596Z,17.50
2022-08-14T03:55:24.368Z,17.51
2022-08-14T03:55:58.933Z,17.44
2022-08-14T03:56:30.395Z,17.34
2022-08-14T03:57:03.476Z,17.36
2022-08-14T03:57:37.215Z,17.40
2022-08-14T03:58:09.029Z,17.41
2022-08-14T03:58:42.339Z,17.41
2022-08-14T03:59:17.966Z,17.39
2022-08-14T03:59:49.749Z,17.35
2022-08-14T04:00:43.268Z,17.31
2022-08-14T04:01:13.537Z,17.35
2022-08-14T04:01:57.773Z,17.39
2022-08-14T04:02:32.296Z,17.41
2022-08-14T04:03:06.554Z,17.37
2022-08-14T04:03:38.150Z,17.34
2022-08-14T04:04:09.717Z,17.33
2022-08-14T04:04:44.457Z,17.33
2022-08-14T04:05:38.089Z,17.27
2022-08-14T04:06:21.117Z,17.35
2022-08-14T04:06:53.096Z,17.18
2022-08-14T04:07:32.910Z,17.17
2022-08-14T04:08:23.228Z,17.21
2022-08-14T04:09:00.626Z,17.31
2022-08-14T04:09:32.650Z,17.34
2022-08-14T04:10:04.371Z,17.38
2022-08-14T04:10:36.501Z,17.36
2022-08-14T04:11:10.299Z,17.39
2022-08-14T04:11:42.086Z,17.43
2022-08-14T04:12:13.758Z,17.36
2022-08-14T04:12:51.537Z,17.16
2022-08-14T04:13:23.762Z,17.21
2022-08-14T04:13:55.485Z,17.18
2022-08-14T04:14:27.579Z,17.17
2022-08-14T04:14:59.024Z,17.11
2022-08-14T04:15:31.891Z,17.19
2022-08-14T04:16:23.612Z,17.22
2022-08-14T04:16:55.079Z,17.18
2022-08-14T04:17:29.433Z,17.17
2022-08-14T04:18:06.640Z,17.07
2022-08-14T04:18:43.600Z,17.02
2022-08-14T04:19:23.971Z,17.09
2022-08-14T04:19:56.348Z,17.14
2022-08-14T04:20:28.414Z,17.14
2022-08-14T04:21:01.053Z,17.14
2022-08-14T04:21:40.034Z,17.14
2022-08-14T04:22:25.168Z,17.09
2022-08-14T04:22:56.645Z,16.96
2022-08-14T04:23:32.628Z,16.97
2022-08-14T04:24:06.903Z,16.94
2022-08-14T04:24:39.352Z,16.98
2022-08-14T04:25:10.986Z,17.01
2022-08-14T04:25:43.550Z,16.95
2022-08-14T04:26:27.216Z,16.96
2022-08-14T04:27:09.649Z,16.88
2022-08-14T04:27:48.580Z,16.90
2022-08-14T04:29:05.294Z,16.91
2022-08-14T04:29:24.473Z,16.88
2022-08-14T04:29:57.422Z,16.83
2022-08-14T04:30:32.830Z,16.91
2022-08-14T04:31:05.006Z,16.99
2022-08-14T04:32:57.835Z,17.07
2022-08-14T04:33:01.417Z,16.93
2022-08-14T04:33:20.786Z,16.93
2022-08-14T04:33:53.317Z,16.94
2022-08-14T04:34:27.829Z,16.98
2022-08-14T04:35:00.034Z,16.99
2022-08-14T04:35:55.373Z,17.08
2022-08-14T04:36:23.997Z,17.04
2022-08-14T04:37:22.434Z,17.13
2022-08-14T04:38:37.047Z,17.09
2022-08-14T04:39:25.504Z,17.12
2022-08-14T04:40:15.897Z,17.14
2022-08-14T04:41:06.064Z,17.17
2022-08-14T04:41:56.245Z,17.01
2022-08-14T04:42:47.263Z,17.04
2022-08-14T04:43:39.896Z,17.02
2022-08-14T04:44:26.399Z,16.95
2022-08-14T04:45:02.921Z,16.89
2022-08-14T04:45:37.290Z,16.95
2022-08-14T04:46:55.708Z,16.97
2022-08-14T04:47:23.612Z,16.95
2022-08-14T04:48:13.381Z,17.06
2022-08-14T04:48:51.042Z,17.07
2022-08-14T04:49:22.905Z,17.07
2022-08-14T04:49:57.371Z,17.06
2022-08-14T04:50:33.717Z,17.04
2022-08-14T04:51:07.794Z,17.14
2022-08-14T04:51:55.550Z,17.20
2022-08-14T04:52:27.664Z,17.24
2022-08-14T04:52:59.084Z,17.08
2022-08-14T04:53:35.550Z,17.09
2022-08-14T04:54:07.800Z,17.16
2022-08-14T04:54:39.227Z,17.10
2022-08-14T04:55:11.117Z,17.02
2022-08-14T04:55:44.671Z,17.12
2022-08-14T04:56:31.100Z,17.15
2022-08-14T04:57:05.581Z,17.04
2022-08-14T04:57:38.382Z,17.13
2022-08-14T04:58:21.549Z,17.08
2022-08-14T04:58:57.933Z,17.23
2022-08-14T04:59:33.773Z,17.30
2022-08-14T05:00:07.321Z,17.40
2022-08-14T05:00:50.867Z,17.59
2022-08-14T05:01:24.460Z,17.68
2022-08-14T05:01:58.065Z,17.72
2022-08-14T05:02:29.596Z,17.82
2022-08-14T05:03:07.364Z,17.88
2022-08-14T05:03:39.889Z,17.95
2022-08-14T05:04:14.648Z,17.97
2022-08-14T05:04:58.724Z,18.03
2022-08-14T05:05:32.295Z,18.02
2022-08-14T05:06:05.493Z,17.84
2022-08-14T05:06:57.381Z,18.03
2022-08-14T05:07:46.723Z,18.14
2022-08-14T05:08:31.762Z,18.25
2022-08-14T05:09:14.165Z,18.35
2022-08-14T05:09:47.880Z,18.40
2022-08-14T05:10:26.047Z,18.45
2022-08-14T05:11:05.052Z,18.53
2022-08-14T05:11:36.979Z,18.57
2022-08-14T05:13:11.173Z,18.59
2022-08-14T05:13:13.421Z,18.66
2022-08-14T05:14:36.117Z,18.70
2022-08-14T05:14:45.653Z,18.56
2022-08-14T05:15:26.457Z,18.62
2022-08-14T05:15:59.008Z,18.72
2022-08-14T05:16:31.752Z,18.78
2022-08-14T05:17:03.219Z,18.80
2022-08-14T05:17:44.202Z,18.82
2022-08-14T05:19:16.666Z,18.90
2022-08-14T05:19:26.730Z,18.80
2022-08-14T05:21:05.136Z,18.91
2022-08-14T05:21:56.520Z,18.98
2022-08-14T05:21:56.961Z,19.03
2022-08-14T05:22:30.689Z,19.04
2022-08-14T05:23:03.464Z,19.05
2022-08-14T05:23:37.327Z,19.03
2022-08-14T05:24:17.725Z,19.04
2022-08-14T05:24:51.368Z,19.08
2022-08-14T05:25:23.075Z,19.06
2022-08-14T05:25:57.665Z,19.03
2022-08-14T05:26:30.004Z,19.10
2022-08-14T05:27:03.297Z,19.13
2022-08-14T05:27:34.831Z,19.17
2022-08-14T05:28:14.164Z,19.17
2022-08-14T05:28:48.187Z,19.19
2022-08-14T05:29:19.653Z,19.21
2022-08-14T05:29:52.055Z,19.24
2022-08-14T05:30:23.641Z,19.26
2022-08-14T05:30:56.375Z,19.29
2022-08-14T05:31:39.866Z,19.32
2022-08-14T05:32:13.457Z,19.35
2022-08-14T05:32:46.747Z,19.38
2022-08-14T05:33:19.818Z,19.39
2022-08-14T05:33:54.697Z,19.44
2022-08-14T05:34:31.547Z,19.45
2022-08-14T05:35:03.847Z,19.51
2022-08-14T05:35:35.527Z,19.55
2022-08-14T05:36:16.780Z,19.61
2022-08-14T05:36:50.580Z,19.64
2022-08-14T05:37:34.052Z,19.62
2022-08-14T05:38:10.756Z,19.65
2022-08-14T05:38:54.067Z,19.62
2022-08-14T05:39:26.894Z,19.68
2022-08-14T05:40:00.528Z,19.76
2022-08-14T05:40:32.355Z,19.90
2022-08-14T05:41:06.408Z,20.01
2022-08-14T05:41:52.969Z,20.06
2022-08-14T05:42:29.196Z,20.09
2022-08-14T05:43:06.848Z,20.14
2022-08-14T05:43:41.458Z,20.20
2022-08-14T05:44:13.312Z,20.32
2022-08-14T05:44:46.169Z,20.42
2022-08-14T05:45:19.047Z,20.49
2022-08-14T05:45:51.217Z,20.62
2022-08-14T05:46:23.262Z,20.89
2022-08-14T05:46:55.062Z,21.05
2022-08-14T05:47:29.140Z,21.19
2022-08-14T05:48:06.198Z,21.06
2022-08-14T05:48:42.940Z,20.93
2022-08-14T05:49:15.438Z,20.81
2022-08-14T05:49:48.680Z,20.80
2022-08-14T05:50:20.166Z,20.78
2022-08-14T05:50:54.722Z,20.72
2022-08-14T05:51:26.708Z,20.62
2022-08-14T05:51:58.841Z,20.70
2022-08-14T05:52:38.467Z,20.79
2022-08-14T05:53:24.212Z,20.94
2022-08-14T05:54:01.575Z,21.23
2022-08-14T05:54:44.865Z,21.76
2022-08-14T05:55:16.702Z,22.11
2022-08-14T05:55:50.169Z,22.28
2022-08-14T05:56:24.860Z,22.65
2022-08-14T05:56:59.885Z,22.99
2022-08-14T05:57:32.658Z,23.42
2022-08-14T05:58:05.493Z,23.77
2022-08-14T05:58:41.331Z,24.09
2022-08-14T05:59:13.159Z,24.41
2022-08-14T05:59:48.224Z,24.85
2022-08-14T06:00:28.972Z,24.98
2022-08-14T06:01:03.326Z,25.14
2022-08-14T06:01:37.567Z,25.12
2022-08-14T06:02:10.084Z,25.09
2022-08-14T06:02:41.951Z,25.12
2022-08-14T06:03:16.645Z,25.19
2022-08-14T06:04:04.481Z,25.22
2022-08-14T06:04:36.480Z,25.54
2022-08-14T06:05:08.061Z,25.38
2022-08-14T06:05:39.922Z,25.44
2022-08-14T06:06:11.926Z,25.89
2022-08-14T06:06:43.356Z,26.03
2022-08-14T06:07:15.293Z,26.19
2022-08-14T06:07:46.790Z,26.21
2022-08-14T06:08:41.317Z,26.56
2022-08-14T06:09:13.379Z,26.91
2022-08-14T06:09:52.161Z,26.90
2022-08-14T06:10:24.022Z,26.85
2022-08-14T06:11:02.858Z,27.09
2022-08-14T06:11:35.095Z,26.92
2022-08-14T06:12:08.575Z,27.44
2022-08-14T06:13:06.053Z,27.77
2022-08-14T06:13:41.159Z,27.30
2022-08-14T06:14:20.867Z,26.90
2022-08-14T06:14:53.398Z,26.69
2022-08-14T06:15:30.083Z,26.70
2022-08-14T06:16:02.615Z,27.22
2022-08-14T06:16:34.182Z,27.13
2022-08-14T06:17:07.935Z,27.01
2022-08-14T06:17:58.786Z,27.01
2022-08-14T06:18:32.197Z,27.08
2022-08-14T06:19:04.108Z,26.79
2022-08-14T06:19:36.753Z,26.67
2022-08-14T06:20:10.384Z,26.72
2022-08-14T06:20:42.157Z,26.78
2022-08-14T06:21:15.910Z,27.20
2022-08-14T06:21:52.126Z,27.15
2022-08-14T06:22:30.339Z,27.02
2022-08-14T06:23:01.856Z,27.48
2022-08-14T06:23:33.733Z,27.93
2022-08-14T06:24:05.259Z,28.44
2022-08-14T06:24:44.133Z,28.46
2022-08-14T06:25:16.005Z,28.18
2022-08-14T06:25:52.577Z,27.81
2022-08-14T06:26:30.466Z,27.91
2022-08-14T06:27:04.835Z,27.69
2022-08-14T06:27:37.985Z,27.36
2022-08-14T06:28:27.386Z,27.43
2022-08-14T06:28:59.975Z,27.53
2022-08-14T06:29:32.442Z,27.12
2022-08-14T06:30:06.515Z,27.17
2022-08-14T06:30:47.085Z,27.48
2022-08-14T06:31:19.032Z,27.35
2022-08-14T06:31:59.969Z,27.55
2022-08-14T06:32:38.305Z,27.69
2022-08-14T06:33:10.957Z,27.45
2022-08-14T06:35:03.456Z,27.68
2022-08-14T06:35:03.835Z,27.87
2022-08-14T06:35:25.453Z,27.70
2022-08-14T06:35:58.302Z,27.90
2022-08-14T06:36:30.231Z,28.42
2022-08-14T06:37:01.648Z,27.85
2022-08-14T06:37:46.893Z,28.44
2022-08-14T06:38:20.496Z,28.85
2022-08-14T06:38:54.694Z,29.21
2022-08-14T06:39:37.598Z,28.76
2022-08-14T06:40:26.031Z,28.55
2022-08-14T06:40:59.640Z,28.26
2022-08-14T06:41:56.763Z,27.91
2022-08-14T06:42:32.982Z,28.65
2022-08-14T06:43:06.934Z,28.55
2022-08-14T06:43:38.551Z,28.80
2022-08-14T06:44:16.680Z,28.86
2022-08-14T06:44:48.127Z,28.89
2022-08-14T06:45:19.668Z,28.84
2022-08-14T06:45:53.996Z,28.63
2022-08-14T06:46:34.181Z,28.90
2022-08-14T06:47:08.713Z,29.18
2022-08-14T06:47:43.844Z,29.10
2022-08-14T06:48:19.367Z,29.18
2022-08-14T06:48:53.124Z,29.40
2022-08-14T06:49:27.200Z,29.82
2022-08-14T06:49:58.647Z,29.24
2022-08-14T06:50:31.565Z,29.09
2022-08-14T06:51:05.171Z,29.15
2022-08-14T06:51:44.489Z,29.52
2022-08-14T06:52:16.736Z,29.36
2022-08-14T06:52:50.410Z,29.15
2022-08-14T06:53:28.100Z,29.12
2022-08-14T06:54:00.983Z,29.11
2022-08-14T06:54:32.450Z,29.20
2022-08-14T06:55:06.331Z,29.47
2022-08-14T06:55:40.811Z,29.30
2022-08-14T06:56:30.068Z,29.17
2022-08-14T06:57:01.511Z,29.20
2022-08-14T06:57:38.670Z,29.46
2022-08-14T06:58:28.481Z,29.35
2022-08-14T06:59:01.068Z,29.75
2022-08-14T06:59:36.844Z,30.19
2022-08-14T07:00:09.616Z,30.31
2022-08-14T07:01:12.878Z,30.46
2022-08-14T07:02:03.080Z,30.42
2022-08-14T07:02:52.937Z,30.03
2022-08-14T07:03:43.160Z,29.59
2022-08-14T07:04:33.422Z,29.35
2022-08-14T07:05:23.608Z,29.07
2022-08-14T07:05:57.877Z,29.36
2022-08-14T07:06:47.060Z,30.10
2022-08-14T07:07:19.343Z,29.76
2022-08-14T07:07:50.966Z,29.96
2022-08-14T07:08:23.199Z,29.80
2022-08-14T07:08:57.487Z,30.55
2022-08-14T07:09:43.745Z,30.82
2022-08-14T07:10:22.353Z,30.49
2022-08-14T07:10:58.430Z,29.79
2022-08-14T07:11:31.185Z,30.28
2022-08-14T07:12:05.285Z,30.28
2022-08-14T07:13:01.387Z,30.48
2022-08-14T07:13:30.697Z,30.97
2022-08-14T07:14:02.570Z,30.29
2022-08-14T07:14:35.227Z,30.73
2022-08-14T07:15:06.948Z,30.22
2022-08-14T07:15:39.929Z,30.26
2022-08-14T07:16:13.931Z,30.18
2022-08-14T07:16:45.563Z,30.00
2022-08-14T07:17:17.037Z,30.35
2022-08-14T07:17:52.148Z,30.80
2022-08-14T07:18:26.380Z,31.11
2022-08-14T07:18:58.040Z,31.23
2022-08-14T07:19:30.170Z,29.79
2022-08-14T07:20:01.628Z,29.63
2022-08-14T07:20:33.319Z,30.12
2022-08-14T07:21:05.742Z,30.32
2022-08-14T07:21:39.660Z,30.34
2022-08-14T07:22:17.380Z,30.55
2022-08-14T07:22:56.843Z,30.76
2022-08-14T07:23:31.289Z,31.08
2022-08-14T07:24:03.881Z,30.93
2022-08-14T07:24:35.475Z,31.23
2022-08-14T07:25:07.444Z,31.10
2022-08-14T07:25:42.289Z,30.72
2022-08-14T07:26:15.239Z,30.41
2022-08-14T07:26:46.836Z,30.50
2022-08-14T07:27:18.312Z,30.81
2022-08-14T07:27:53.575Z,30.79
2022-08-14T07:28:26.539Z,30.88
2022-08-14T07:28:58.017Z,30.40
2022-08-14T07:29:29.479Z,30.33
2022-08-14T07:30:03.230Z,30.14
2022-08-14T07:30:36.013Z,30.23
2022-08-14T07:31:13.603Z,30.24
2022-08-14T07:31:47.918Z,29.82
2022-08-14T07:32:20.014Z,30.29
2022-08-14T07:32:53.667Z,30.44
2022-08-14T07:33:29.854Z,30.33
2022-08-14T07:34:01.748Z,30.61
2022-08-14T07:34:40.959Z,31.17
2022-08-14T07:35:12.789Z,30.89
2022-08-14T07:35:58.413Z,30.52
2022-08-14T07:36:31.246Z,31.38
2022-08-14T07:37:02.835Z,31.31
2022-08-14T07:37:34.344Z,31.84
2022-08-14T07:38:06.216Z,31.54
2022-08-14T07:38:41.140Z,31.95
2022-08-14T07:39:13.395Z,31.53
2022-08-14T07:39:45.143Z,31.02
2022-08-14T07:40:27.426Z,31.22
2022-08-14T07:41:01.492Z,31.43
2022-08-14T07:41:35.697Z,31.36
2022-08-14T07:42:08.160Z,31.46
2022-08-14T07:42:41.154Z,31.47
2022-08-14T07:43:14.885Z,31.50
2022-08-14T07:43:47.462Z,31.59
2022-08-14T07:44:32.209Z,31.34
2022-08-14T07:45:08.013Z,31.22
2022-08-14T07:45:40.836Z,31.60
2022-08-14T07:46:13.875Z,31.50
2022-08-14T07:46:52.906Z,31.71
2022-08-14T07:47:24.540Z,31.61
2022-08-14T07:47:57.907Z,31.58
2022-08-14T07:48:29.824Z,31.31
2022-08-14T07:49:01.360Z,31.62
2022-08-14T07:49:34.134Z,31.66
2022-08-14T07:50:08.494Z,31.62
2022-08-14T07:50:40.815Z,31.58
2022-08-14T07:51:18.924Z,31.61
2022-08-14T07:51:51.620Z,31.47
2022-08-14T07:52:31.035Z,31.31
2022-08-14T07:53:03.482Z,30.75
2022-08-14T07:53:39.136Z,30.60
2022-08-14T07:54:11.868Z,30.71
2022-08-14T07:54:43.311Z,30.58
2022-08-14T07:55:20.969Z,31.10
2022-08-14T07:56:00.463Z,31.12
2022-08-14T07:56:47.178Z,31.32
2022-08-14T07:57:24.883Z,31.01
2022-08-14T07:57:56.666Z,31.47
2022-08-14T07:58:34.190Z,30.91
2022-08-14T07:59:10.112Z,30.58
2022-08-14T07:59:43.518Z,30.68
2022-08-14T08:00:29.921Z,30.45
2022-08-14T08:01:02.816Z,30.43
2022-08-14T08:01:34.563Z,30.47
2022-08-14T08:02:06.044Z,30.52
2022-08-14T08:02:53.132Z,30.95
2022-08-14T08:03:30.344Z,30.80